Terminal Aerodrome Forecast
Issued by NWS

Home | Current Version | Previous Version | Text Only | Print | Product List | Glossary On
Versions: 1 2 3 4 5 6 7 8 9 10 11 12 13 14 15 16 17 18 19 20 21 22 23 24 25 26 27 28 29 30 31 32 33 34 35 36 37 38 39 40 41 42 43 44 45 46 47
000
FTUS45 KBOU 141129
TAFAPA
TAF
KAPA 141129Z 1412/1512 22006KT P6SM SCT200
     FM141500 26005KT P6SM FEW090 BKN200
     FM142100 32008KT P6SM SCT100 BKN220
     FM150100 VRB05KT P6SM SCT100 BKN200
     FM150300 21007KT P6SM FEW100 SCT140 BKN200
     FM150700 35010KT P6SM SCT020
     FM150900 02007KT P6SM SCT008 BKN020=

USA.gov is the U.S. government's official web portal to all federal, state and local government web resources and services.